• Join FlightAware (Why Join?)
  • Login
  • US Flag 
08:56PM EDT


 

Airport Tracker/Info


-or-


 

Live Flight TrackerFlight Track Log ✈ N7800 ✈ 11-Dec-2013 ✈ KPAO - KSMO

Flight Track Log - Related Links

Times and Time Zones

All times are in EST time to prevent confusion due to time zone crossing. See the N7800 flight status page for this flight to view local times or setup timezone preferences in your user account.

Time Position Orientation Groundspeed Altitude Reporting Facility
EST Latitude Longitude Course Direction KTS MPH feet Rate Location/Type
05:27PM 36.9989 -121.6011 139° Southeast 182 209 9,400  Level Oakland Center
05:28PM 36.9606 -121.5594 139° Southeast 183 211 9,400  Level Oakland Center
05:29PM 36.9139 -121.5081 139° Southeast 186 214 9,400  Level Oakland Center
05:30PM 36.8767 -121.4656 138° Southeast 183 211 9,400  Level Oakland Center
05:31PM 36.8394 -121.4244 139° Southeast 179 206 9,500  Climbing Oakland Center
05:32PM 36.8022 -121.3842 139° Southeast 183 211 9,500  Level Oakland Center
05:33PM 36.7647 -121.3425 138° Southeast 181 208 9,500  Level Oakland Center
05:34PM 36.7267 -121.3008 139° Southeast 182 209 9,500  Level Oakland Center
05:35PM 36.6892 -121.2592 138° Southeast 182 209 9,500  Level Oakland Center
05:36PM 36.6436 -121.2100 139° Southeast 181 208 9,500  Level Oakland Center
05:37PM 36.6064 -121.1692 139° Southeast 178 205 9,500  Level Oakland Center
05:38PM 36.5689 -121.1267 138° Southeast 181 208 9,500  Level Oakland Center
05:39PM 36.5314 -121.0861 139° Southeast 179 206 9,500  Level Oakland Center
05:40PM 36.4933 -121.0433 138° Southeast 183 211 9,500  Level Oakland Center
05:41PM 36.4556 -121.0025 139° Southeast 182 209 9,500  Level Oakland Center
05:42PM 36.4167 -120.9622 140° Southeast 182 209 9,500  Level Oakland Center
05:43PM 36.3800 -120.9189 136° Southeast 182 209 9,500  Level Oakland Center
05:44PM 36.3406 -120.8789 141° Southeast 183 211 9,500  Level Oakland Center
05:45PM 36.3047 -120.8375 137° Southeast 177 204 9,500  Level Oakland Center
05:46PM 36.2600 -120.7894 139° Southeast 179 206 9,500  Level Oakland Center
05:47PM 36.2231 -120.7497 139° Southeast 176 203 9,500  Level Oakland Center
05:48PM 36.1864 -120.7094 138° Southeast 176 203 9,500  Level Oakland Center
05:50PM 36.1489 -120.6714 141° Southeast 176 203 9,500 -60 Level Oakland Center
05:51PM 36.1125 -120.6319 139° Southeast 175 201 9,400  Descending Oakland Center
05:52PM 36.0764 -120.5919 138° Southeast 175 201 9,500  Climbing Oakland Center
05:53PM 36.0394 -120.5525 139° Southeast 175 201 9,500  Level Oakland Center
05:54PM 36.0025 -120.5128 139° Southeast 176 203 9,500 -60 Level Oakland Center
05:55PM 35.9664 -120.4722 138° Southeast 175 201 9,400 -60 Descending Oakland Center
05:56PM 35.9214 -120.4253 140° Southeast 176 203 9,400  Level Oakland Center
05:57PM 35.8833 -120.3850 139° Southeast 177 204 9,400  Level Oakland Center
05:58PM 35.8472 -120.3450 138° Southeast 178 205 9,400  Level Oakland Center
05:59PM 35.8097 -120.3056 140° Southeast 177 204 9,400  Level Oakland Center
06:00PM 35.7733 -120.2661 139° Southeast 174 200 9,400  Level Oakland Center
06:01PM 35.7358 -120.2272 140° Southeast 175 201 9,400  Level Oakland Center
06:02PM 35.6983 -120.1869 139° Southeast 177 204 9,400  Level Oakland Center
06:03PM 35.6614 -120.1469 139° Southeast 177 204 9,400  Level Oakland Center
06:04PM 35.6222 -120.1072 140° Southeast 180 207 9,400  Level Oakland Center
06:04PM 35.5992 -120.0825 139° Southeast 181 208 9,400  Level Los Angeles Center
06:05PM 35.5614 -120.0417 139° Southeast 181 208 9,400  Level Los Angeles Center
06:06PM 35.5239 -120.0022 139° Southeast 178 205 9,400  Level Los Angeles Center
06:08PM 35.4786 -119.9547 139° Southeast 178 205 9,400  Level Los Angeles Center
06:09PM 35.4411 -119.9150 139° Southeast 178 205 9,400  Level Los Angeles Center
06:10PM 35.3967 -119.8683 139° Southeast 175 201 9,400  Level Los Angeles Center
06:11PM 35.3589 -119.8278 139° Southeast 178 205 9,400  Level Los Angeles Center
06:12PM 35.3217 -119.7892 140° Southeast 177 204 9,400  Level Los Angeles Center
06:13PM 35.2836 -119.7492 139° Southeast 178 205 9,400  Level Los Angeles Center
06:14PM 35.2319 -119.6947 139° Southeast 177 204 9,400  Level Los Angeles Center
06:15PM 35.1942 -119.6561 140° Southeast 177 204 9,400  Level Los Angeles Center
06:16PM 35.1578 -119.6181 139° Southeast 174 200 9,400  Level Los Angeles Center
06:17PM 35.1214 -119.5789 139° Southeast 174 200 9,400  Level Los Angeles Center
06:18PM 35.0839 -119.5417 141° Southeast 174 200 9,400  Level Los Angeles Center
06:19PM 35.0392 -119.4953 140° Southeast 175 201 9,400  Level Los Angeles Center
06:21PM 34.9953 -119.4483 139° Southeast 174 200 9,400  Level Los Angeles Center
06:22PM 34.9575 -119.4103 140° Southeast 176 203 9,400  Level Los Angeles Center
06:23PM 34.9200 -119.3711 139° Southeast 177 204 9,400  Level Los Angeles Center
06:24PM 34.8833 -119.3306 138° Southeast 177 204 9,400  Level Los Angeles Center
06:25PM 34.8450 -119.2931 141° Southeast 178 205 9,500  Climbing Los Angeles Center
06:26PM 34.7986 -119.2492 142° Southeast 175 201 9,500  Level Los Angeles Center
06:27PM 34.7628 -119.2092 137° Southeast 176 203 9,500  Level Los Angeles Center
06:28PM 34.7247 -119.1703 140° Southeast 178 205 9,500  Level Los Angeles Center
06:29PM 34.6872 -119.1303 139° Southeast 179 206 9,500  Level Los Angeles Center
06:30PM 34.6478 -119.0908 141° Southeast 186 214 9,600  Climbing Los Angeles Center
06:31PM 34.6008 -119.0439 141° Southeast 183 211 9,500 -60 Descending Los Angeles Center
06:32PM 34.5603 -119.0067 143° Southeast 182 209 9,500  Level Los Angeles Center
06:33PM 34.5217 -118.9650 138° Southeast 185 213 9,500  Level Los Angeles Center
06:34PM 34.4828 -118.9261 140° Southeast 181 208 9,500  Level Los Angeles Center
06:35PM 34.4542 -118.8961 139° Southeast 174 200 9,500 -180 Level Los Angeles Center
06:36PM 34.4072 -118.8508 141° Southeast 181 208 9,200 -600 Descending Los Angeles Center
06:37PM 34.3572 -118.8042 142° Southeast 187 215 8,300 -780 Descending Los Angeles Center
06:38PM 34.3181 -118.7664 141° Southeast 181 208 7,700 -780 Descending Los Angeles Center
06:39PM 34.2783 -118.7269 141° Southeast 183 211 6,800 -1,080 Descending Los Angeles Center
06:40PM 34.2397 -118.6825 136° Southeast 189 217 5,500 -1,140 Descending Los Angeles Center
06:41PM 34.2050 -118.6383 134° Southeast 186 214 4,500 -900 Descending Los Angeles Center
06:42PM 34.1833 -118.6000 124° Southeast 178 205 4,100 -540 Descending Southern California TRACON
06:43PM 34.1500 -118.5667 140° Southeast 165 190 3,700 -660 Descending Southern California TRACON
06:44PM 34.1167 -118.5333 140° Southeast 172 198 2,800 -900 Descending Southern California TRACON
06:44PM 34.1014 -118.5056 124° Southeast 169 194 2,400 -660 Descending Los Angeles Center
06:45PM 34.0717 -118.4656 132° Southeast 157 181 1,800 -540 Descending Los Angeles Center
06:46PM 34.0475 -118.4361 135° Southeast 139 160 1,400 -480 Descending Los Angeles Center
06:47PM 34.0308 -118.4336 173° South 110 127 900 -540 Descending Los Angeles Center
06:48PM 34.0128 -118.4558 226° Southwest 102 117 400 -540 Descending Los Angeles Center